createdAt,value
2018-11-28T00:01:53.959Z,-1.70
2018-11-28T00:03:55.999Z,-1.70
2018-11-28T00:05:57.983Z,-1.70
2018-11-28T00:07:59.979Z,-1.70
2018-11-28T00:10:02.093Z,-1.70
2018-11-28T00:12:04.139Z,-1.70
2018-11-28T00:14:06.131Z,-1.70
2018-11-28T00:16:08.155Z,-1.80
2018-11-28T00:18:10.147Z,-1.70
2018-11-28T00:20:14.214Z,-1.70
2018-11-28T00:22:16.199Z,-1.70
2018-11-28T00:24:18.191Z,-1.70
2018-11-28T00:26:20.179Z,-1.70
2018-11-28T00:28:22.158Z,-1.80
2018-11-28T00:30:24.931Z,-1.80
2018-11-28T00:32:26.915Z,-1.80
2018-11-28T00:34:28.894Z,-1.80
2018-11-28T00:36:30.878Z,-1.80
2018-11-28T00:38:32.870Z,-1.80
2018-11-28T00:40:34.854Z,-1.80
2018-11-28T00:42:36.848Z,-1.80
2018-11-28T00:44:38.835Z,-1.80
2018-11-28T00:46:40.819Z,-1.80
2018-11-28T00:48:42.810Z,-1.80
2018-11-28T00:50:44.795Z,-1.80
2018-11-28T00:52:46.815Z,-1.80
2018-11-28T00:54:48.807Z,-1.80
2018-11-28T00:56:50.786Z,-1.80
2018-11-28T00:58:52.783Z,-1.80
2018-11-28T01:00:54.775Z,-1.80
2018-11-28T01:02:56.750Z,-1.80
2018-11-28T01:04:58.737Z,-1.80
2018-11-28T01:07:01.687Z,-1.80
2018-11-28T01:09:05.231Z,-1.80
2018-11-28T01:11:07.218Z,-1.80
2018-11-28T01:13:09.211Z,-1.80
2018-11-28T01:15:12.131Z,-1.80
2018-11-28T01:17:14.118Z,-1.80
2018-11-28T01:19:16.115Z,-1.90
2018-11-28T01:21:18.095Z,-1.90
2018-11-28T01:23:20.087Z,-1.90
2018-11-28T01:25:22.130Z,-1.90
2018-11-28T01:27:24.115Z,-1.90
2018-11-28T01:29:26.111Z,-1.90
2018-11-28T01:31:28.102Z,-1.90
2018-11-28T01:33:30.115Z,-1.90
2018-11-28T01:35:32.103Z,-1.90
2018-11-28T01:37:34.089Z,-1.90
2018-11-28T01:39:36.083Z,-1.90
2018-11-28T01:41:38.071Z,-1.90
2018-11-28T01:43:40.059Z,-1.90
2018-11-28T01:45:42.047Z,-1.90
2018-11-28T01:47:44.830Z,-1.90
2018-11-28T01:49:47.690Z,-1.90
2018-11-28T01:51:50.536Z,-1.90
2018-11-28T01:53:53.596Z,-1.90
2018-11-28T01:55:56.908Z,-1.90
2018-11-28T01:57:58.971Z,-1.90
2018-11-28T02:00:00.963Z,-1.90
2018-11-28T02:02:02.951Z,-1.90
2018-11-28T02:04:05.074Z,-1.90
2018-11-28T02:08:15.820Z,-1.90
2018-11-28T02:10:17.795Z,-1.90
2018-11-28T02:12:19.775Z,-2.00
2018-11-28T02:14:21.762Z,-1.90
2018-11-28T02:16:23.772Z,-2.00
2018-11-28T02:18:32.597Z,-2.00
2018-11-28T02:20:34.587Z,-2.00
2018-11-28T02:22:36.597Z,-2.00
2018-11-28T02:24:38.588Z,-2.00
2018-11-28T02:26:40.570Z,-2.00
2018-11-28T02:28:42.552Z,-2.00
2018-11-28T02:30:44.552Z,-2.00
2018-11-28T02:32:47.257Z,-2.00
2018-11-28T02:34:49.252Z,-2.00
2018-11-28T02:36:51.248Z,-2.00
2018-11-28T02:38:53.235Z,-2.00
2018-11-28T02:40:55.224Z,-2.00
2018-11-28T02:42:57.231Z,-2.10
2018-11-28T02:44:59.227Z,-2.00
2018-11-28T02:47:01.221Z,-2.00
2018-11-28T02:49:03.203Z,-2.00
2018-11-28T02:51:05.648Z,-2.00
2018-11-28T02:53:07.630Z,-2.10
2018-11-28T02:55:11.355Z,-2.00
2018-11-28T02:57:13.347Z,-2.10
2018-11-28T02:59:15.349Z,-2.10
2018-11-28T03:01:17.343Z,-2.10
2018-11-28T03:03:19.364Z,-2.10
2018-11-28T03:05:21.374Z,-2.00
2018-11-28T03:07:23.355Z,-2.00
2018-11-28T03:09:25.364Z,-2.10
2018-11-28T03:11:27.377Z,-2.10
2018-11-28T03:13:29.366Z,-2.10
2018-11-28T03:15:32.686Z,-2.10
2018-11-28T03:17:34.672Z,-2.10
2018-11-28T03:19:36.659Z,-2.10
2018-11-28T03:21:38.653Z,-2.10
2018-11-28T03:23:40.673Z,-2.10
2018-11-28T03:25:42.665Z,-2.10
2018-11-28T03:27:44.655Z,-2.20
2018-11-28T03:29:46.699Z,-2.20
2018-11-28T03:31:48.682Z,-2.20
2018-11-28T03:33:50.673Z,-2.20
2018-11-28T03:35:52.667Z,-2.20
2018-11-28T03:37:54.647Z,-2.20
2018-11-28T03:39:56.630Z,-2.20
2018-11-28T03:41:58.623Z,-2.20
2018-11-28T03:44:00.595Z,-2.20
2018-11-28T03:46:02.579Z,-2.20
2018-11-28T03:48:04.644Z,-2.20
2018-11-28T03:50:08.132Z,-2.20
2018-11-28T03:52:10.126Z,-2.20
2018-11-28T03:54:12.163Z,-2.30
2018-11-28T03:56:14.155Z,-2.30
2018-11-28T03:58:16.139Z,-2.20
2018-11-28T04:00:19.180Z,-2.30
2018-11-28T04:02:21.162Z,-2.30
2018-11-28T04:04:23.155Z,-2.30
2018-11-28T04:06:25.159Z,-2.30
2018-11-28T04:08:27.148Z,-2.30
2018-11-28T04:10:29.143Z,-2.30
2018-11-28T04:12:31.133Z,-2.30
2018-11-28T04:14:33.123Z,-2.20
2018-11-28T04:16:35.127Z,-2.30
2018-11-28T04:18:37.112Z,-2.30
2018-11-28T04:20:39.110Z,-2.30
2018-11-28T04:22:41.099Z,-2.20
2018-11-28T04:24:43.075Z,-2.20
2018-11-28T04:26:45.066Z,-2.30
2018-11-28T04:28:47.050Z,-2.20
2018-11-28T04:30:49.049Z,-2.20
2018-11-28T04:32:52.131Z,-2.30
2018-11-28T04:34:54.125Z,-2.30
2018-11-28T04:36:56.123Z,-2.30
2018-11-28T04:38:58.109Z,-2.30
2018-11-28T04:41:00.107Z,-2.30
2018-11-28T04:43:08.888Z,-2.20
2018-11-28T04:45:12.795Z,-2.30
2018-11-28T04:47:14.783Z,-2.30
2018-11-28T04:49:16.779Z,-2.20
2018-11-28T04:51:18.773Z,-2.30
2018-11-28T04:53:20.765Z,-2.30
2018-11-28T04:55:22.767Z,-2.30
2018-11-28T04:57:24.750Z,-2.20
2018-11-28T04:59:26.744Z,-2.20
2018-11-28T05:01:28.747Z,-2.10
2018-11-28T05:03:30.779Z,-2.10
2018-11-28T05:05:32.781Z,-2.10
2018-11-28T05:07:34.768Z,-2.10
2018-11-28T05:09:36.755Z,-2.10
2018-11-28T05:11:38.751Z,-2.10
2018-11-28T05:13:40.735Z,-2.00
2018-11-28T05:15:42.733Z,-2.00
2018-11-28T05:17:45.674Z,-2.00
2018-11-28T05:19:47.663Z,-2.10
2018-11-28T05:21:49.655Z,-2.10
2018-11-28T05:23:51.647Z,-2.10
2018-11-28T05:25:54.019Z,-2.10
2018-11-28T05:27:57.542Z,-2.10
2018-11-28T05:29:59.531Z,-2.10
2018-11-28T05:32:01.506Z,-2.20
2018-11-28T05:34:03.927Z,-2.10
2018-11-28T05:36:05.927Z,-2.10
2018-11-28T05:38:09.355Z,-2.20
2018-11-28T05:40:17.858Z,-2.10
2018-11-28T05:42:19.883Z,-2.20
2018-11-28T05:44:21.867Z,-2.20
2018-11-28T05:46:23.859Z,-2.20
2018-11-28T05:48:25.842Z,-2.30
2018-11-28T05:50:27.845Z,-2.30
2018-11-28T05:52:29.831Z,-2.30
2018-11-28T05:54:31.815Z,-2.30
2018-11-28T05:56:33.799Z,-2.30
2018-11-28T05:58:35.796Z,-2.40
2018-11-28T06:00:39.523Z,-2.40
2018-11-28T06:02:41.552Z,-2.40
2018-11-28T06:04:43.535Z,-2.40
2018-11-28T06:06:45.526Z,-2.50
2018-11-28T06:08:47.523Z,-2.40
2018-11-28T06:10:49.527Z,-2.50
2018-11-28T06:12:51.895Z,-2.50
2018-11-28T06:14:53.883Z,-2.50
2018-11-28T06:16:55.867Z,-2.50
2018-11-28T06:18:57.856Z,-2.50
2018-11-28T06:20:59.852Z,-2.50
2018-11-28T06:23:01.849Z,-2.50
2018-11-28T06:25:05.267Z,-2.50
2018-11-28T06:27:07.264Z,-2.60
2018-11-28T06:29:09.248Z,-2.50
2018-11-28T06:31:11.238Z,-2.60
2018-11-28T06:33:13.215Z,-2.60
2018-11-28T06:35:15.210Z,-2.50
2018-11-28T06:37:17.199Z,-2.50
2018-11-28T06:39:19.183Z,-2.60
2018-11-28T06:41:21.170Z,-2.60
2018-11-28T06:43:23.211Z,-2.60
2018-11-28T06:45:25.211Z,-2.60
2018-11-28T06:47:27.198Z,-2.50
2018-11-28T06:49:29.187Z,-2.50
2018-11-28T06:51:31.182Z,-2.50
2018-11-28T06:53:33.171Z,-2.50
2018-11-28T06:55:35.159Z,-2.50
2018-11-28T06:57:37.168Z,-2.50
2018-11-28T06:59:39.175Z,-2.50
2018-11-28T07:01:41.167Z,-2.50
2018-11-28T07:03:43.163Z,-2.50
2018-11-28T07:05:45.151Z,-2.50
2018-11-28T07:07:47.127Z,-2.40
2018-11-28T07:09:49.111Z,-2.50
2018-11-28T07:11:51.099Z,-2.40
2018-11-28T07:13:53.090Z,-2.50
2018-11-28T07:15:55.075Z,-2.40
2018-11-28T07:18:07.405Z,-2.40
2018-11-28T07:20:12.411Z,-2.40
2018-11-28T07:22:14.399Z,-2.40
2018-11-28T07:24:16.392Z,-2.40
2018-11-28T07:26:18.376Z,-2.20
2018-11-28T07:28:20.376Z,-2.00
2018-11-28T07:30:22.383Z,-1.60
2018-11-28T07:32:24.367Z,-1.40
2018-11-28T07:34:26.362Z,-1.10
2018-11-28T07:36:28.371Z,-1.10
2018-11-28T07:38:30.388Z,-0.90
2018-11-28T07:40:32.370Z,-0.80
2018-11-28T07:42:34.354Z,-1.20
2018-11-28T07:44:36.342Z,-1.30
2018-11-28T07:46:38.332Z,-1.50
2018-11-28T07:48:40.320Z,-1.50
2018-11-28T07:50:47.967Z,-1.60
2018-11-28T07:52:49.975Z,-1.60
2018-11-28T07:54:51.959Z,-1.50
2018-11-28T07:56:53.965Z,-1.50
2018-11-28T07:58:55.938Z,-1.50
2018-11-28T08:00:57.925Z,-1.50
2018-11-28T08:02:59.907Z,-1.50
2018-11-28T08:05:01.948Z,-1.40
2018-11-28T08:07:04.042Z,-1.40
2018-11-28T08:09:06.717Z,-1.20
2018-11-28T08:11:08.702Z,-1.40
2018-11-28T08:13:10.747Z,-1.30
2018-11-28T08:15:12.734Z,-1.20
2018-11-28T08:17:14.719Z,-1.10
2018-11-28T08:19:16.715Z,-1.00
2018-11-28T08:21:18.759Z,-0.80
2018-11-28T08:23:20.738Z,-0.80
2018-11-28T08:25:27.842Z,-0.70
2018-11-28T08:27:24.719Z,-0.60
2018-11-28T08:29:26.711Z,-0.60
2018-11-28T08:31:28.702Z,-0.60
2018-11-28T08:33:30.687Z,-0.60
2018-11-28T08:35:32.681Z,-0.60
2018-11-28T08:37:34.655Z,-0.70
2018-11-28T08:39:36.635Z,-0.70
2018-11-28T08:41:38.623Z,-0.50
2018-11-28T08:43:40.619Z,-0.50
2018-11-28T08:45:42.633Z,-0.50
2018-11-28T08:47:52.687Z,-0.40
2018-11-28T08:49:54.681Z,-0.30
2018-11-28T08:51:56.691Z,-0.20
2018-11-28T08:53:58.675Z,-0.30
2018-11-28T08:56:00.670Z,-0.20
2018-11-28T08:58:02.664Z,-0.20
2018-11-28T09:00:10.599Z,-0.20
2018-11-28T09:02:12.595Z,-0.40
2018-11-28T09:04:14.582Z,-0.20
2018-11-28T09:06:16.571Z,-0.10
2018-11-28T09:08:18.582Z,-0.10
2018-11-28T09:10:20.567Z,-0.40
2018-11-28T09:12:22.559Z,-0.10
2018-11-28T09:14:24.539Z,0.10
2018-11-28T09:16:26.537Z,0.20
2018-11-28T09:18:28.523Z,0.30
2018-11-28T09:20:30.512Z,0.20
2018-11-28T09:22:32.511Z,0.40
2018-11-28T09:24:34.499Z,0.50
2018-11-28T09:26:36.502Z,0.50
2018-11-28T09:28:38.496Z,0.60
2018-11-28T09:30:40.478Z,0.60
2018-11-28T09:32:42.505Z,0.90
2018-11-28T09:34:44.491Z,1.00
2018-11-28T09:36:46.491Z,1.10
2018-11-28T09:38:48.492Z,1.10
2018-11-28T09:40:50.494Z,1.20
2018-11-28T09:42:54.586Z,1.40
2018-11-28T09:44:56.647Z,1.70
2018-11-28T09:46:58.591Z,1.60
2018-11-28T09:49:00.582Z,1.40
2018-11-28T09:51:02.587Z,1.30
2018-11-28T09:53:04.587Z,1.10
2018-11-28T09:55:08.190Z,1.50
2018-11-28T09:57:10.198Z,1.20
2018-11-28T09:59:18.918Z,1.40
2018-11-28T10:01:20.915Z,1.50
2018-11-28T10:03:22.919Z,1.90
2018-11-28T10:05:31.895Z,2.30
2018-11-28T10:07:33.895Z,2.30
2018-11-28T10:09:35.887Z,2.50
2018-11-28T10:11:37.886Z,2.80
2018-11-28T10:13:39.891Z,2.70
2018-11-28T10:15:41.880Z,3.20
2018-11-28T10:17:43.928Z,3.30
2018-11-28T10:19:45.895Z,3.60
2018-11-28T10:21:47.878Z,3.60
2018-11-28T10:23:56.595Z,3.70
2018-11-28T10:25:58.577Z,4.20
2018-11-28T10:28:06.458Z,4.20
2018-11-28T10:30:14.963Z,5.00
2018-11-28T10:32:16.951Z,5.40
2018-11-28T10:34:18.934Z,4.70
2018-11-28T10:36:20.919Z,4.20
2018-11-28T10:38:22.911Z,4.20
2018-11-28T10:40:24.917Z,3.60
2018-11-28T10:42:26.923Z,3.60
2018-11-28T10:44:28.923Z,3.80
2018-11-28T10:46:30.947Z,3.40
2018-11-28T10:48:32.951Z,3.90
2018-11-28T10:50:34.927Z,3.20
2018-11-28T10:52:37.535Z,3.20
2018-11-28T10:54:39.524Z,3.30
2018-11-28T10:56:41.507Z,2.40
2018-11-28T10:58:43.691Z,3.10
2018-11-28T11:00:51.396Z,3.20
2018-11-28T11:02:59.015Z,3.30
2018-11-28T11:05:06.712Z,3.40
2018-11-28T11:07:14.522Z,3.50
2018-11-28T11:09:22.295Z,2.60
2018-11-28T11:11:25.063Z,3.20
2018-11-28T11:13:33.994Z,3.10
2018-11-28T11:15:36.037Z,3.00
2018-11-28T11:17:38.006Z,3.20
2018-11-28T11:19:40.027Z,3.10
2018-11-28T11:21:42.011Z,3.00
2018-11-28T11:23:44.003Z,3.10
2018-11-28T11:25:46.001Z,2.80
2018-11-28T11:27:47.983Z,2.60
2018-11-28T11:29:49.993Z,2.60
2018-11-28T11:31:52.007Z,2.70
2018-11-28T11:33:53.998Z,2.80
2018-11-28T11:35:55.974Z,2.90
2018-11-28T11:37:57.991Z,3.40
2018-11-28T11:39:59.980Z,3.50
2018-11-28T11:42:01.974Z,3.40
2018-11-28T11:44:03.963Z,3.40
2018-11-28T11:46:06.051Z,3.10
2018-11-28T11:48:08.052Z,3.20
2018-11-28T11:50:17.375Z,2.80
2018-11-28T11:52:19.376Z,2.30
2018-11-28T11:54:21.367Z,2.60
2018-11-28T11:56:23.384Z,2.50
2018-11-28T11:58:25.389Z,2.60
2018-11-28T12:00:27.403Z,2.60
2018-11-28T12:02:30.183Z,2.90
2018-11-28T12:04:32.194Z,3.10
2018-11-28T12:06:34.186Z,3.40
2018-11-28T12:08:36.171Z,3.70
2018-11-28T12:10:38.287Z,3.40
2018-11-28T12:12:40.308Z,3.20
2018-11-28T12:14:42.327Z,3.40
2018-11-28T12:16:44.323Z,3.10
2018-11-28T12:18:46.314Z,3.30
2018-11-28T12:20:50.924Z,2.80
2018-11-28T12:22:52.991Z,3.40
2018-11-28T12:24:54.908Z,3.40
2018-11-28T12:26:56.898Z,3.50
2018-11-28T12:28:58.883Z,3.10
2018-11-28T12:31:00.907Z,3.60
2018-11-28T12:33:02.919Z,3.30
2018-11-28T12:35:07.043Z,3.40
2018-11-28T12:37:09.031Z,3.50
2018-11-28T12:39:11.038Z,3.20
2018-11-28T12:41:13.175Z,3.10
2018-11-28T12:43:15.028Z,3.40
2018-11-28T12:45:18.003Z,3.30
2018-11-28T12:47:19.996Z,3.30
2018-11-28T12:49:21.983Z,3.50
2018-11-28T12:51:23.983Z,3.50
2018-11-28T12:53:25.979Z,3.60
2018-11-28T12:55:28.726Z,3.70
2018-11-28T12:57:30.722Z,3.70
2018-11-28T12:59:32.698Z,3.50
2018-11-28T13:01:34.687Z,3.70
2018-11-28T13:03:36.666Z,3.50
2018-11-28T13:05:38.707Z,3.30
2018-11-28T13:07:40.678Z,3.40
2018-11-28T13:09:42.660Z,3.30
2018-11-28T13:11:44.647Z,3.00
2018-11-28T13:13:46.631Z,3.50
2018-11-28T13:15:48.631Z,3.40
2018-11-28T13:17:50.619Z,3.40
2018-11-28T13:19:52.611Z,3.50
2018-11-28T13:21:54.617Z,3.50
2018-11-28T13:23:56.611Z,3.70
2018-11-28T13:25:58.584Z,4.00
2018-11-28T13:28:00.578Z,3.60
2018-11-28T13:30:03.703Z,3.70
2018-11-28T13:32:05.717Z,3.40
2018-11-28T13:34:07.851Z,3.10
2018-11-28T13:36:09.851Z,3.40
2018-11-28T13:38:12.478Z,3.10
2018-11-28T13:40:15.411Z,3.10
2018-11-28T13:42:17.412Z,3.00
2018-11-28T13:44:19.411Z,3.00
2018-11-28T13:46:21.461Z,2.90
2018-11-28T13:48:23.459Z,2.80
2018-11-28T13:50:25.467Z,2.90
2018-11-28T13:52:27.455Z,2.70
2018-11-28T13:54:29.443Z,2.70
2018-11-28T13:56:58.153Z,2.70
2018-11-28T13:58:33.434Z,2.60
2018-11-28T14:00:35.424Z,2.70
2018-11-28T14:02:37.575Z,2.50
2018-11-28T14:04:39.571Z,2.60
2018-11-28T14:06:41.568Z,2.30
2018-11-28T14:08:43.551Z,2.50
2018-11-28T14:10:45.531Z,2.30
2018-11-28T14:12:47.523Z,2.40
2018-11-28T14:14:49.515Z,2.40
2018-11-28T14:16:51.503Z,2.40
2018-11-28T14:18:53.495Z,2.30
2018-11-28T14:20:55.522Z,2.30
2018-11-28T14:22:57.531Z,2.30
2018-11-28T14:24:59.524Z,2.20
2018-11-28T14:27:01.511Z,2.20
2018-11-28T14:29:03.515Z,2.10
2018-11-28T14:31:05.790Z,2.20
2018-11-28T14:33:07.792Z,2.10
2018-11-28T14:35:10.439Z,2.10
2018-11-28T14:37:12.431Z,2.10
2018-11-28T14:39:14.422Z,2.10
2018-11-28T14:41:16.416Z,2.10
2018-11-28T14:43:18.427Z,2.10
2018-11-28T14:45:20.423Z,2.00
2018-11-28T14:47:22.415Z,2.00
2018-11-28T14:49:24.431Z,2.00
2018-11-28T14:51:26.420Z,2.00
2018-11-28T14:53:28.422Z,2.00
2018-11-28T14:55:33.787Z,2.00
2018-11-28T14:57:35.775Z,1.90
2018-11-28T14:59:40.518Z,1.90
2018-11-28T15:01:39.783Z,1.90
2018-11-28T15:03:41.775Z,1.90
2018-11-28T15:05:55.249Z,1.90
2018-11-28T15:07:59.640Z,1.90
2018-11-28T15:10:01.867Z,1.80
2018-11-28T15:12:11.578Z,1.90
2018-11-28T15:14:09.208Z,1.90
2018-11-28T15:16:11.250Z,1.90
2018-11-28T15:18:13.252Z,1.80
2018-11-28T15:20:15.248Z,1.80
2018-11-28T15:22:17.247Z,1.80
2018-11-28T15:24:19.236Z,1.80
2018-11-28T15:26:21.223Z,1.80
2018-11-28T15:28:23.227Z,1.80
2018-11-28T15:30:25.218Z,1.80
2018-11-28T15:32:27.215Z,1.70
2018-11-28T15:34:29.222Z,1.80
2018-11-28T15:36:31.238Z,1.70
2018-11-28T15:38:33.231Z,1.70
2018-11-28T15:40:35.350Z,1.70
2018-11-28T15:42:37.348Z,1.70
2018-11-28T15:44:39.355Z,1.70
2018-11-28T15:46:41.346Z,1.70
2018-11-28T15:48:43.348Z,1.70
2018-11-28T15:50:45.359Z,1.70
2018-11-28T15:52:47.355Z,1.60
2018-11-28T15:54:49.343Z,1.60
2018-11-28T15:56:51.347Z,1.60
2018-11-28T15:58:53.643Z,1.60
2018-11-28T16:00:55.659Z,1.60
2018-11-28T16:02:57.663Z,1.60
2018-11-28T16:04:59.691Z,1.60
2018-11-28T16:07:01.682Z,1.60
2018-11-28T16:09:06.471Z,1.60
2018-11-28T16:11:10.715Z,1.60
2018-11-28T16:13:14.171Z,1.70
2018-11-28T16:15:20.416Z,1.70
2018-11-28T16:17:22.418Z,1.70
2018-11-28T16:19:24.410Z,1.70
2018-11-28T16:21:26.418Z,1.70
2018-11-28T16:23:28.419Z,1.70
2018-11-28T16:25:30.459Z,1.80
2018-11-28T16:27:32.458Z,1.80
2018-11-28T16:29:34.547Z,2.00
2018-11-28T16:31:36.550Z,1.90
2018-11-28T16:33:38.543Z,1.90
2018-11-28T16:35:40.543Z,1.90
2018-11-28T16:37:42.519Z,2.00
2018-11-28T16:39:44.508Z,1.90
2018-11-28T16:41:46.498Z,2.00
2018-11-28T16:43:48.487Z,2.10
2018-11-28T16:45:50.488Z,2.10
2018-11-28T16:47:52.481Z,2.10
2018-11-28T16:49:54.462Z,2.10
2018-11-28T16:51:56.456Z,2.10
2018-11-28T16:53:58.447Z,2.10
2018-11-28T16:56:00.438Z,2.10
2018-11-28T16:58:02.470Z,2.20
2018-11-28T17:00:14.239Z,2.10
2018-11-28T17:02:16.307Z,2.10
2018-11-28T17:04:18.307Z,2.10
2018-11-28T17:06:20.312Z,2.10
2018-11-28T17:08:22.315Z,2.10
2018-11-28T17:10:27.330Z,2.10
2018-11-28T17:12:29.326Z,2.10
2018-11-28T17:14:31.335Z,2.10
2018-11-28T17:16:33.336Z,2.10
2018-11-28T17:18:35.331Z,2.10
2018-11-28T17:20:39.991Z,2.10
2018-11-28T17:22:42.259Z,2.10
2018-11-28T17:24:44.251Z,2.10
2018-11-28T17:26:46.268Z,2.10
2018-11-28T17:28:48.259Z,2.10
2018-11-28T17:30:50.280Z,2.10
2018-11-28T17:32:52.255Z,2.10
2018-11-28T17:34:54.283Z,2.20
2018-11-28T17:36:56.274Z,2.20
2018-11-28T17:38:59.756Z,2.20
2018-11-28T17:41:01.743Z,2.20
2018-11-28T17:43:03.994Z,2.20
2018-11-28T17:45:08.926Z,2.20
2018-11-28T17:47:10.962Z,2.20
2018-11-28T17:49:12.951Z,2.20
2018-11-28T17:51:14.951Z,2.20
2018-11-28T17:53:17.023Z,2.20
2018-11-28T17:55:19.019Z,2.30
2018-11-28T17:57:21.019Z,2.40
2018-11-28T17:59:23.011Z,2.50
2018-11-28T18:01:25.016Z,2.50
2018-11-28T18:03:27.014Z,2.50
2018-11-28T18:05:29.003Z,2.60
2018-11-28T18:07:30.999Z,2.70
2018-11-28T18:09:33.019Z,2.70
2018-11-28T18:11:35.033Z,2.60
2018-11-28T18:13:39.547Z,2.70
2018-11-28T18:15:41.279Z,2.70
2018-11-28T18:17:43.271Z,2.70
2018-11-28T18:19:45.299Z,2.70
2018-11-28T18:21:47.398Z,2.70
2018-11-28T18:23:49.335Z,2.80
2018-11-28T18:25:51.326Z,2.80
2018-11-28T18:27:53.324Z,2.80
2018-11-28T18:29:55.323Z,2.70
2018-11-28T18:31:57.331Z,2.70
2018-11-28T18:33:59.323Z,2.80
2018-11-28T18:36:01.320Z,2.70
2018-11-28T18:38:03.363Z,2.70
2018-11-28T18:40:08.923Z,2.80
2018-11-28T18:42:10.907Z,2.80
2018-11-28T18:44:12.895Z,2.90
2018-11-28T18:46:14.871Z,2.80
2018-11-28T18:48:16.878Z,2.80
2018-11-28T18:50:18.866Z,3.00
2018-11-28T18:52:21.566Z,2.90
2018-11-28T18:54:22.846Z,3.00
2018-11-28T18:56:24.857Z,3.00
2018-11-28T18:58:26.858Z,3.10
2018-11-28T19:00:28.853Z,3.00
2018-11-28T19:02:30.846Z,2.90
2018-11-28T19:04:32.843Z,3.00
2018-11-28T19:06:34.832Z,3.00
2018-11-28T19:08:36.838Z,3.00
2018-11-28T19:10:38.823Z,3.00
2018-11-28T19:12:40.814Z,3.00
2018-11-28T19:14:42.847Z,3.00
2018-11-28T19:16:44.854Z,3.00
2018-11-28T19:18:46.847Z,3.00
2018-11-28T19:20:48.883Z,3.00
2018-11-28T19:22:51.829Z,3.00
2018-11-28T19:24:53.854Z,3.00
2018-11-28T19:26:55.899Z,3.00
2018-11-28T19:28:57.910Z,3.00
2018-11-28T19:30:59.903Z,3.00
2018-11-28T19:33:01.951Z,3.00
2018-11-28T19:35:04.710Z,3.00
2018-11-28T19:37:06.803Z,3.00
2018-11-28T19:39:09.166Z,3.00
2018-11-28T19:41:18.083Z,3.00
2018-11-28T19:43:20.125Z,3.00
2018-11-28T19:45:22.219Z,3.00
2018-11-28T19:47:24.215Z,3.00
2018-11-28T19:49:26.258Z,2.90
2018-11-28T19:51:28.287Z,2.90
2018-11-28T19:53:30.278Z,2.90
2018-11-28T19:55:32.266Z,2.90
2018-11-28T19:57:34.266Z,2.90
2018-11-28T19:59:36.263Z,3.00
2018-11-28T20:01:38.247Z,2.90
2018-11-28T20:03:40.253Z,3.00
2018-11-28T20:05:42.237Z,3.00
2018-11-28T20:07:45.505Z,3.00
2018-11-28T20:09:52.123Z,3.00
2018-11-28T20:11:54.126Z,3.00
2018-11-28T20:13:56.135Z,3.00
2018-11-28T20:15:58.127Z,3.10
2018-11-28T20:18:00.098Z,3.10
2018-11-28T20:20:02.116Z,3.10
2018-11-28T20:22:04.634Z,3.00
2018-11-28T20:24:06.667Z,3.00
2018-11-28T20:26:08.646Z,3.00
2018-11-28T20:28:10.633Z,3.00
2018-11-28T20:30:17.811Z,3.10
2018-11-28T20:32:19.803Z,3.00
2018-11-28T20:34:21.810Z,3.10
2018-11-28T20:36:23.811Z,3.00
2018-11-28T20:38:31.385Z,3.10
2018-11-28T20:40:33.387Z,3.10
2018-11-28T20:42:35.391Z,3.10
2018-11-28T20:44:37.375Z,3.10
2018-11-28T20:46:39.369Z,3.10
2018-11-28T20:48:41.366Z,3.10
2018-11-28T20:50:43.363Z,3.10
2018-11-28T20:52:47.748Z,3.10
2018-11-28T20:54:49.735Z,3.10
2018-11-28T20:56:51.736Z,3.10
2018-11-28T20:58:53.723Z,3.20
2018-11-28T21:00:55.715Z,3.10
2018-11-28T21:02:57.709Z,3.20
2018-11-28T21:04:59.713Z,3.20
2018-11-28T21:07:01.703Z,3.20
2018-11-28T21:09:07.614Z,3.20
2018-11-28T21:11:09.609Z,3.20
2018-11-28T21:13:12.257Z,3.20
2018-11-28T21:15:14.291Z,3.20
2018-11-28T21:17:17.431Z,3.20
2018-11-28T21:19:18.271Z,3.20
2018-11-28T21:21:20.276Z,3.20
2018-11-28T21:23:22.260Z,3.30
2018-11-28T21:25:24.259Z,3.30
2018-11-28T21:27:26.240Z,3.20
2018-11-28T21:29:28.231Z,3.20
2018-11-28T21:31:30.219Z,3.30
2018-11-28T21:33:32.216Z,3.30
2018-11-28T21:35:35.747Z,3.20
2018-11-28T21:37:38.003Z,3.20
2018-11-28T21:39:39.990Z,3.20
2018-11-28T21:41:41.990Z,3.30
2018-11-28T21:43:43.971Z,3.20
2018-11-28T21:45:46.006Z,3.20
2018-11-28T21:47:48.106Z,3.20
2018-11-28T21:49:50.093Z,3.20
2018-11-28T21:51:52.093Z,3.20
2018-11-28T21:53:54.160Z,3.20
2018-11-28T21:55:56.151Z,3.20
2018-11-28T21:57:58.139Z,3.20
2018-11-28T22:00:00.123Z,3.20
2018-11-28T22:02:02.115Z,3.20
2018-11-28T22:04:04.100Z,3.20
2018-11-28T22:06:06.094Z,3.20
2018-11-28T22:08:08.091Z,3.20
2018-11-28T22:10:12.311Z,3.20
2018-11-28T22:12:14.303Z,3.10
2018-11-28T22:14:16.290Z,3.10
2018-11-28T22:16:18.295Z,3.10
2018-11-28T22:18:20.279Z,3.10
2018-11-28T22:20:22.911Z,3.00
2018-11-28T22:22:24.903Z,3.00
2018-11-28T22:24:26.906Z,3.10
2018-11-28T22:26:28.891Z,3.10
2018-11-28T22:28:30.908Z,3.00
2018-11-28T22:30:32.914Z,3.00
2018-11-28T22:32:34.986Z,3.00
2018-11-28T22:34:36.982Z,3.00
2018-11-28T22:36:38.984Z,3.00
2018-11-28T22:38:41.179Z,3.00
2018-11-28T22:40:43.186Z,3.00
2018-11-28T22:42:45.175Z,3.00
2018-11-28T22:44:47.159Z,3.00
2018-11-28T22:46:49.171Z,3.00
2018-11-28T22:48:51.163Z,3.00
2018-11-28T22:50:53.147Z,3.00
2018-11-28T22:52:55.144Z,3.00
2018-11-28T22:54:57.446Z,3.00
2018-11-28T22:56:59.431Z,3.10
2018-11-28T22:59:01.435Z,3.10
2018-11-28T23:01:07.258Z,3.20
2018-11-28T23:03:09.799Z,3.20
2018-11-28T23:05:11.783Z,3.30
2018-11-28T23:07:13.763Z,3.30
2018-11-28T23:09:15.759Z,3.30
2018-11-28T23:11:17.743Z,3.40
2018-11-28T23:13:22.471Z,3.30
2018-11-28T23:15:24.466Z,3.30
2018-11-28T23:17:26.461Z,3.40
2018-11-28T23:19:28.459Z,3.40
2018-11-28T23:21:30.438Z,3.50
2018-11-28T23:23:32.433Z,3.60
2018-11-28T23:25:34.475Z,3.60
2018-11-28T23:27:36.491Z,3.70
2018-11-28T23:29:38.479Z,3.80
2018-11-28T23:31:40.466Z,3.80
2018-11-28T23:33:42.451Z,3.70
2018-11-28T23:35:44.439Z,3.70
2018-11-28T23:37:47.194Z,3.80
2018-11-28T23:39:49.179Z,3.80
2018-11-28T23:41:51.166Z,3.80
2018-11-28T23:43:53.162Z,3.80
2018-11-28T23:45:55.151Z,3.90
2018-11-28T23:47:57.147Z,4.00
2018-11-28T23:49:59.134Z,4.00
2018-11-28T23:52:01.131Z,4.20
2018-11-28T23:54:03.383Z,4.20
2018-11-28T23:56:05.371Z,4.10
2018-11-28T23:58:07.363Z,4.10
